Flugplatz Unterschwaningen (UL)

Hier findest Du alle Informationen zum Flugplatz Unterschwaningen (UL).

Informationen für Piloten zum Flugplatz Unterschwaningen

Hier findest Du alle relevanten Informationen, die Du als Pilot benötigst, um Unterschwaningen anzufliegen.

Flugplatz: Unterschwaningen ICAO-Code: UL Flugplatz
Frequenz Turm: 120.975 Mhz GAFOR Gebiet: 56
Frequenz Ground: 120.975 Mhz Mogas: nein
Platzrunde: N 2000 ft Landegebühr: -
Platzhöhe: Sunrise: 06:51 Uhr UTC
Pisten: 07/25 - 350 m x 25 m, GRAS Sunset: 16:08 Uhr UTC

Flugwetter am Flugplatz Unterschwaningen

Die METAR Information stammen aus EDDN (56.08 km entfernt).

METAR Code:
2023/01/03 12:20
EDDN 031220Z AUTO 28005KT 9999 FEW016 BKN042 08/04 Q1030 NOSIG

Flugschulen am Flugplatz Unterschwaningen

Am Flugplatz Unterschwaningen gibt es leider keine Flugschule.

Benachbarte Flugplätze und Flugschulen

Es gibt 23 weitere Flugplätze in einem Umkreis von 50 km um den Flugplatz Unterschwaningen.

Jetzt anmelden

Passwort vergessen

Umfrage Archiv

Sendet Ihr ADS-B und/oder FLARM?

Ja
84.7 %
Nein
15.3 %
Stimmen: 274 | Diskussion
Anzeige: Roland Aircraft
Statistik Alle Mitglieder

Aktuell sind 46 Besucher online, davon 3 Mitglieder und 43 Gäste.


Mitglieder online:
Steffen_E  monstertyp  Maraio 

Anzeige: ULPower Aero Engines Anzeige: EasyVFR